Latest Weather Observations for Gingin Airport

IDW60801

Issued at 2:34 pm WST Saturday 25 February 2017 (issued every 30 minutes, with the page automatically refreshed every 10 minutes)

About weather observations | Map of weather stations | Latest weather observations for WA | Other Formats
Station Details ID: 009178 Name: GINGIN AERO Lat: -31.46 Lon: 115.86 Height: 73.0 m
Data from the previous 72 hours. | See also: Recent months at Gingin Airport
Date/Time
WST
Temp
°C
App
Temp
°C
Dew
Point
°C
Rel
Hum
%
Delta-T
°C
Wind Press
QNH
hPa
Press
MSL
hPa
Rain since
9am
mm
Dir  Spd
km/h
Gust
km/h
Spd
kts
Gust
kts
25/02:30pm 39.2 36.1 3.4 11 19.2 NNW 9 15 5 8 1012.0 1011.6 0.0
25/02:00pm 38.6 35.4 2.9 11 18.9 ESE 9 17 5 9 1012.4 1012.0 0.0
25/01:30pm 38.4 34.2 4.0 12 18.5 NE 15 20 8 11 1012.9 1012.5 0.0
25/01:00pm 38.0 33.8 3.7 12 18.3 N 15 24 8 13 1013.4 1013.0 0.0
25/12:30pm 37.3 34.1 5.3 14 17.5 NNW 11 20 6 11 1013.8 1013.5 0.0
25/12:00pm 37.2 33.7 7.2 16 16.8 NNE 15 20 8 11 1014.4 1014.1 0.0
25/11:30am 36.4 32.6 7.4 17 16.3 NNE 17 26 9 14 1014.7 1014.4 0.0
25/11:00am 35.1 30.8 8.0 19 15.2 NNE 20 30 11 16 1015.2 1014.9 0.0
25/10:30am 35.3 31.7 9.7 21 14.8 NNE 19 28 10 15 1015.5 1015.2 0.0
25/10:00am 33.3 29.4 8.7 22 13.9 N 19 28 10 15 1015.7 1015.4 0.0
25/09:30am 32.6 29.3 9.4 24 13.2 NNE 17 24 9 13 1015.7 1015.4 0.0
25/09:00am 31.0 25.8 8.7 25 12.4 NNE 26 35 14 19 1015.8 1015.5 0.0
25/08:30am 29.7 24.3 8.2 26 11.8 NE 26 39 14 21 1015.9 1015.6 0.0
25/08:00am 28.4 24.7 8.1 28 11.1 NE 17 26 9 14 1016.0 1015.7 0.0
25/07:30am 26.9 23.4 7.4 29 10.4 NE 15 24 8 13 1016.1 1015.8 0.0
25/07:00am 25.5 22.4 7.1 31 9.7 NNE 13 22 7 12 1016.0 1015.7 0.0
25/06:30am 23.8 20.5 6.6 33 8.9 NE 13 17 7 9 1015.9 1015.6 0.0
25/06:00am 23.0 20.4 6.3 34 8.5 NNE 9 15 5 8 1015.5 1015.2 0.0
25/05:30am 23.4 20.0 5.8 32 8.9 NE 13 19 7 10 1015.2 1014.9 0.0
25/05:00am 24.4 19.8 5.7 30 9.5 NE 19 26 10 14 1015.0 1014.7 0.0
25/04:30am 24.2 19.7 6.0 31 9.3 ENE 19 24 10 13 1014.9 1014.6 0.0
25/04:00am 23.5 19.4 6.3 33 8.8 ENE 17 22 9 12 1015.0 1014.7 0.0
25/03:30am 22.9 18.8 6.2 34 8.5 E 17 19 9 10 1015.1 1014.8 0.0
25/03:00am 24.2 19.8 6.5 32 9.2 ENE 19 22 10 12 1015.2 1014.9 0.0
25/02:30am 24.2 20.2 6.5 32 9.2 E 17 20 9 11 1015.4 1015.1 0.0
25/02:00am 23.5 20.2 6.3 33 8.8 ENE 13 17 7 9 1015.5 1015.2 0.0
25/01:30am 23.7 20.8 6.5 33 8.9 E 11 15 6 8 1015.8 1015.5 0.0
25/01:00am 23.7 20.4 6.5 33 8.9 E 13 15 7 8 1016.1 1015.8 0.0
25/12:30am 23.6 20.7 6.4 33 8.9 E 11 15 6 8 1016.4 1016.1 0.0
25/12:00am 22.2 19.6 7.6 39 7.6 E 11 15 6 8 1016.7 1016.4 0.0
 
Date/Time
WST
Temp
°C
App
Temp
°C
Dew
Point
°C
Rel
Hum
%
Delta-T
°C
Wind Press
QNH
hPa
Press
MSL
hPa
Rain since
9am
mm
Dir  Spd
km/h
Gust
km/h
Spd
kts
Gust
kts
24/11:30pm 20.3 18.5 8.0 45 6.4 E 7 9 4 5 1016.9 1016.6 0.0
24/11:00pm 23.3 20.4 6.6 34 8.6 E 11 13 6 7 1017.0 1016.7 0.0
24/10:30pm 23.2 20.4 6.9 35 8.4 E 11 11 6 6 1017.2 1016.8 0.0
24/10:00pm 23.4 20.6 7.1 35 8.5 E 11 13 6 7 1017.4 1017.0 0.0
24/09:30pm 24.3 21.1 7.0 33 9.0 E 13 15 7 8 1017.4 1017.0 0.0
24/09:00pm 25.2 22.5 7.3 32 9.4 E 11 13 6 7 1017.4 1017.0 0.0
24/08:30pm 25.9 23.2 7.5 31 9.8 E 11 13 6 7 1017.2 1016.8 0.0
24/08:00pm 27.4 24.7 7.3 28 10.7 E 11 13 6 7 1016.8 1016.5 0.0
24/07:30pm 28.7 25.5 6.7 25 11.7 E 13 15 7 8 1016.6 1016.3 0.0
24/07:00pm 30.7 27.7 5.9 21 13.2 E 11 13 6 7 1016.2 1015.9 0.0
24/06:30pm 33.4 29.8 5.0 17 15.1 E 13 17 7 9 1016.1 1015.8 0.0
24/06:00pm 34.9 29.5 2.4 13 16.7 E 20 30 11 16 1015.9 1015.6 0.0
24/05:30pm 35.7 30.0 3.0 13 17.1 E 22 30 12 16 1015.8 1015.5 0.0
24/05:00pm 36.1 30.9 3.3 13 17.2 E 20 28 11 15 1015.9 1015.6 0.0
24/04:30pm 36.4 31.2 3.6 13 17.3 E 20 32 11 17 1016.0 1015.7 0.0
24/04:00pm 36.5 31.9 3.7 13 17.4 E 17 28 9 15 1016.3 1016.0 0.0
24/03:30pm 36.5 31.3 3.7 13 17.4 ENE 20 30 11 16 1016.5 1016.2 0.0
24/03:00pm 36.8 32.2 3.9 13 17.5 ENE 17 26 9 14 1016.7 1016.4 0.0
24/02:30pm 36.4 30.6 2.5 12 17.6 E 22 28 12 15 1017.2 1016.8 0.0
24/02:00pm 36.1 31.6 4.4 14 16.9 NE 17 28 9 15 1017.7 1017.3 0.0
24/01:30pm 35.6 30.5 4.0 14 16.7 E 20 28 11 15 1018.2 1017.8 0.0
24/01:00pm 35.7 30.4 5.1 15 16.5 ENE 22 32 12 17 1018.5 1018.1 0.0
24/12:30pm 34.9 29.5 6.2 17 15.7 ENE 24 33 13 18 1018.7 1018.3 0.0
24/12:00pm 34.2 29.6 8.0 20 14.6 ENE 22 35 12 19 1019.3 1018.9 0.0
24/11:30am 32.9 28.5 9.0 23 13.5 NE 22 32 12 17 1019.7 1019.3 0.0
24/11:00am 32.4 26.8 8.6 23 13.3 NE 28 39 15 21 1020.1 1019.7 0.0
24/10:30am 31.4 25.3 8.4 24 12.8 ENE 30 41 16 22 1020.4 1020.0 0.0
24/10:00am 30.3 26.1 9.8 28 11.6 NE 22 30 12 16 1020.8 1020.4 0.0
24/09:30am 28.9 23.8 9.1 29 11.0 NE 26 39 14 21 1020.9 1020.5 0.0
24/09:00am 27.2 22.5 9.1 32 9.9 ENE 24 35 13 19 1020.7 1020.3 0.0
24/08:30am 25.4 20.2 10.1 38 8.5 ENE 28 35 15 19 1020.7 1020.3 0.0
24/08:00am 24.5 19.0 10.4 41 7.8 ENE 30 37 16 20 1020.9 1020.5 0.0
24/07:30am 23.2 18.9 10.6 45 7.0 ENE 24 32 13 17 1020.7 1020.3 0.0
24/07:00am 22.2 18.3 10.7 48 6.3 E 22 30 12 16 1020.5 1020.1 0.0
24/06:30am 21.1 17.6 10.3 50 5.9 E 19 24 10 13 1020.3 1019.9 0.0
24/06:00am 20.5 16.5 10.3 52 5.5 E 22 28 12 15 1020.1 1019.7 0.0
24/05:30am 20.9 16.4 10.1 50 5.9 E 24 28 13 15 1019.7 1019.3 0.0
24/05:00am 21.3 16.4 9.9 48 6.2 E 26 32 14 17 1019.5 1019.1 0.0
24/04:30am 21.5 17.4 10.0 48 6.2 E 22 26 12 14 1019.3 1018.9 0.0
24/04:00am 21.1 17.4 10.0 49 6.0 E 20 28 11 15 1019.3 1018.9 0.0
24/03:30am 20.6 17.2 10.7 53 5.4 E 19 24 10 13 1019.2 1018.8 0.0
24/03:00am 18.0 15.8 10.9 63 3.8 SE 13 15 7 8 1019.3 1018.9 0.0
24/02:30am 17.2 14.6 11.9 71 2.9 SE 17 17 9 9 1019.4 1019.0 0.0
24/02:00am 15.4 13.6 13.2 87 1.2 SSE 15 17 8 9 1019.7 1019.3 0.0
24/01:30am 15.4 15.1 13.4 88 1.1 SSE 7 9 4 5 1019.8 1019.4 0.0
24/01:00am 15.6 15.5 13.3 86 1.3 SSE 6 7 3 4 1020.1 1019.7 0.0
24/12:30am 16.3 16.1 13.6 84 1.5 SSE 7 9 4 5 1020.3 1019.9 0.0
24/12:00am 17.1 16.7 14.2 83 1.7 SSE 9 9 5 5 1020.3 1019.9 0.0
 
Date/Time
WST
Temp
°C
App
Temp
°C
Dew
Point
°C
Rel
Hum
%
Delta-T
°C
Wind Press
QNH
hPa
Press
MSL
hPa
Rain since
9am
mm
Dir  Spd
km/h
Gust
km/h
Spd
kts
Gust
kts
23/11:30pm 17.7 17.1 14.6 82 1.8 SSE 11 13 6 7 1020.4 1020.0 0.0
23/11:00pm 17.7 17.5 14.8 83 1.7 SE 9 11 5 6 1020.4 1020.0 0.0
23/10:30pm 18.3 18.2 15.0 81 1.9 SSE 9 11 5 6 1020.6 1020.2 0.0
23/10:00pm 18.8 18.4 15.1 79 2.2 SSE 11 13 6 7 1020.8 1020.4 0.0
23/09:30pm 19.6 19.7 15.5 77 2.4 SSE 9 11 5 6 1020.8 1020.4 0.0
23/09:00pm 20.3 20.0 15.5 74 2.8 S 11 15 6 8 1020.5 1020.1 0.0
23/08:30pm 21.0 20.0 15.5 71 3.3 S 15 17 8 9 1020.3 1019.9 0.0
23/08:00pm 21.8 20.3 15.4 67 3.8 S 17 22 9 12 1020.0 1019.6 0.0
23/07:30pm 22.7 20.7 15.0 61 4.6 SSW 19 24 10 13 1019.5 1019.1 0.0
23/07:00pm 23.8 21.8 15.0 57 5.3 SSW 19 24 10 13 1019.2 1018.8 0.0
23/06:30pm 25.6 23.5 15.3 53 6.2 SSW 20 28 11 15 1018.9 1018.5 0.0
23/06:00pm 26.8 24.1 15.5 50 6.9 SSW 24 28 13 15 1018.6 1018.2 0.0
23/05:30pm 28.3 26.1 15.9 47 7.7 SSW 22 32 12 17 1018.4 1018.0 0.0
23/05:00pm 29.3 27.2 15.1 42 8.7 S 20 26 11 14 1018.3 1017.9 0.0
23/04:30pm 32.3 27.9 7.2 21 13.8 SE 20 30 11 16 1018.2 1017.8 0.0
23/04:00pm 32.1 28.2 7.0 21 13.7 ESE 17 28 9 15 1018.3 1017.9 0.0
23/03:30pm 32.6 29.5 8.8 23 13.4 SSE 15 30 8 16 1018.3 1017.9 0.0
23/03:00pm 31.7 29.3 8.7 24 12.8 E 11 20 6 11 1018.5 1018.1 0.0
23/02:30pm 31.3 28.4 8.3 24 12.8 E 13 24 7 13 1018.8 1018.4 0.0
23/02:00pm 31.5 28.7 8.5 24 12.8 SE 13 28 7 15 1019.2 1018.8 0.0
23/01:30pm 31.1 28.9 9.3 26 12.3 ESE 11 20 6 11 1019.5 1019.1 0.0
23/01:00pm 30.2 27.5 9.1 27 11.8 ESE 13 37 7 20 1019.8 1019.4 0.0
23/12:30pm 29.6 28.0 8.6 27 11.6 E 7 19 4 10 1020.0 1019.6 0.0
23/12:00pm 29.2 27.2 8.8 28 11.3 NNE 9 20 5 11 1020.3 1019.9 0.0
23/11:30am 28.3 25.6 9.1 30 10.6 ESE 13 28 7 15 1020.7 1020.3 0.0
23/11:00am 28.0 26.0 10.2 33 10.0 ENE 11 20 6 11 1021.1 1020.7 0.0
23/10:30am 26.7 23.1 10.0 35 9.3 ENE 19 24 10 13 1021.5 1021.1 0.0
23/10:00am 26.3 23.8 10.9 38 8.7 ENE 15 22 8 12 1021.6 1021.2 0.0
23/09:30am 25.3 22.6 11.8 43 7.7 E 17 20 9 11 1021.7 1021.3 0.0
23/09:00am 23.4 20.4 11.8 48 6.5 E 19 24 10 13 1021.9 1021.5 0.0
23/08:30am 20.8 19.4 12.2 58 4.8 ESE 11 17 6 9 1021.9 1021.5 0.0
23/08:00am 18.4 17.5 12.6 69 3.2 SE 9 11 5 6 1021.8 1021.4 0.0
23/07:30am 15.7 14.9 13.0 84 1.5 SE 9 11 5 6 1021.7 1021.3 0.0
23/07:00am 13.2 12.6 12.3 94 0.5 ESE 7 9 4 5 1021.4 1021.0 0.0
23/06:30am 12.0 10.7 11.2 95 0.4 ESE 9 11 5 6 1021.2 1020.8 0.0
23/06:00am 11.6 10.7 10.7 94 0.5 SE 6 9 3 5 1020.9 1020.5 0.0
23/05:30am 11.8 10.0 11.0 95 0.4 SE 11 15 6 8 1020.8 1020.4 0.0
23/05:00am 11.3 10.1 10.4 94 0.5 SE 7 11 4 6 1020.6 1020.2 0.0
23/04:30am 11.8 11.0 10.9 94 0.5 SE 6 7 3 4 1020.5 1020.1 0.0
23/04:00am 11.1 10.0 10.0 93 0.6 SE 6 7 3 4 1020.6 1020.2 0.0
23/03:30am 12.1 11.3 11.0 93 0.6 SE 6 7 3 4 1020.6 1020.2 0.0
23/03:00am 12.4 11.5 11.3 93 0.6 SE 7 9 4 5 1020.5 1020.1 0.0
23/02:30am 12.5 11.6 11.2 92 0.7 SSE 7 9 4 5 1020.4 1020.0 0.0
23/02:00am 12.6 11.3 11.3 92 0.7 SE 9 9 5 5 1020.4 1020.0 0.0
23/01:30am 13.3 12.6 11.9 91 0.8 SE 7 7 4 4 1020.6 1020.2 0.0
23/01:00am 13.6 13.0 11.8 89 1.0 SE 6 7 3 4 1020.6 1020.2 0.0
23/12:30am 14.1 13.5 12.3 89 1.0 SSE 7 7 4 4 1020.7 1020.3 0.0
23/12:00am 14.6 14.1 12.6 88 1.1 SSE 7 9 4 5 1020.9 1020.5 0.0
 
Date/Time
WST
Temp
°C
App
Temp
°C
Dew
Point
°C
Rel
Hum
%
Delta-T
°C
Wind Press
QNH
hPa
Press
MSL
hPa
Rain since
9am
mm
Dir  Spd
km/h
Gust
km/h
Spd
kts
Gust
kts
22/11:30pm 14.9 14.0 12.6 86 1.3 SSE 9 11 5 6 1021.0 1020.6 0.0
22/11:00pm 15.4 14.6 12.9 85 1.4 SSE 9 11 5 6 1021.1 1020.7 0.0
22/10:30pm 15.8 15.0 12.9 83 1.6 SSE 9 11 5 6 1021.3 1020.9 0.0
22/10:00pm 16.4 15.7 13.1 81 1.8 S 9 13 5 7 1021.4 1021.0 0.0
22/09:30pm 17.0 16.0 13.3 79 2.1 S 11 13 6 7 1021.4 1021.0 0.0
22/09:00pm 17.2 15.7 13.1 77 2.3 S 13 17 7 9 1021.5 1021.1 0.0
22/08:30pm 17.5 15.9 12.8 74 2.6 SSW 13 17 7 9 1021.1 1020.7 0.0
22/08:00pm 18.1 16.0 12.5 70 3.1 SSW 15 20 8 11 1020.8 1020.4 0.0
22/07:30pm 18.5 16.0 12.3 67 3.5 SSW 17 20 9 11 1020.5 1020.1 0.0
22/07:00pm 19.3 16.8 12.3 64 3.9 SSW 17 20 9 11 1020.2 1019.8 0.0
22/06:30pm 20.2 17.0 11.9 59 4.6 SSW 20 26 11 14 1019.9 1019.5 0.0
22/06:00pm 21.0 17.0 11.9 56 5.1 SSW 24 30 13 16 1019.5 1019.1 0.0
22/05:30pm 21.7 17.4 12.0 54 5.5 SSW 26 33 14 18 1019.3 1018.9 0.0
22/05:00pm 22.6 18.3 12.0 51 6.0 SSW 26 33 14 18 1019.4 1019.0 0.0
22/04:30pm 22.6 18.2 11.7 50 6.1 SSW 26 35 14 19 1019.3 1018.9 0.0
22/04:00pm 23.6 19.3 12.0 48 6.6 SSW 26 33 14 18 1019.3 1018.9 0.0
22/03:30pm 23.7 19.4 12.0 48 6.7 SSW 26 39 14 21 1019.4 1019.0 0.0
22/03:00pm 23.7 19.2 11.4 46 6.9 SSW 26 35 14 19 1019.5 1019.1 0.0

Other Formats:

Comma delimited format used in spreadsheet applications
http://www.bom.gov.au/fwo/IDW60801/IDW60801.95612.axf

JavaScript Object Notation format (JSON) in row-major order
http://www.bom.gov.au/fwo/IDW60801/IDW60801.95612.json